sensor_id;sensor_type;location;lat;lon;timestamp;P1;durP1;ratioP1;P2;durP2;ratioP2
20397;SDS011;10358;49.590;11.030;2024-02-15T00:00:09;16.20;;;10.03;;
20397;SDS011;10358;49.590;11.030;2024-02-15T00:02:35;20.63;;;11.03;;
20397;SDS011;10358;49.590;11.030;2024-02-15T00:05:01;16.77;;;10.57;;
20397;SDS011;10358;49.590;11.030;2024-02-15T00:07:26;16.93;;;10.33;;
20397;SDS011;10358;49.590;11.030;2024-02-15T00:09:52;18.37;;;10.83;;
20397;SDS011;10358;49.590;11.030;2024-02-15T00:12:18;18.57;;;10.60;;
20397;SDS011;10358;49.590;11.030;2024-02-15T00:14:44;16.20;;;10.20;;
20397;SDS011;10358;49.590;11.030;2024-02-15T00:17:10;18.97;;;10.93;;
20397;SDS011;10358;49.590;11.030;2024-02-15T00:19:36;18.90;;;10.23;;
20397;SDS011;10358;49.590;11.030;2024-02-15T00:22:04;16.00;;;10.43;;
20397;SDS011;10358;49.590;11.030;2024-02-15T00:24:30;18.67;;;10.30;;
20397;SDS011;10358;49.590;11.030;2024-02-15T00:26:56;16.27;;;10.50;;
20397;SDS011;10358;49.590;11.030;2024-02-15T00:29:22;15.27;;;9.87;;
20397;SDS011;10358;49.590;11.030;2024-02-15T00:31:47;16.10;;;11.10;;
20397;SDS011;10358;49.590;11.030;2024-02-15T00:34:14;16.37;;;10.33;;
20397;SDS011;10358;49.590;11.030;2024-02-15T00:36:44;18.03;;;11.37;;
20397;SDS011;10358;49.590;11.030;2024-02-15T00:39:10;18.83;;;11.43;;
20397;SDS011;10358;49.590;11.030;2024-02-15T00:41:43;20.70;;;11.57;;
20397;SDS011;10358;49.590;11.030;2024-02-15T00:44:09;20.57;;;11.37;;
20397;SDS011;10358;49.590;11.030;2024-02-15T00:46:37;17.53;;;11.17;;
20397;SDS011;10358;49.590;11.030;2024-02-15T00:49:03;14.97;;;10.27;;
20397;SDS011;10358;49.590;11.030;2024-02-15T00:51:31;16.10;;;9.67;;
20397;SDS011;10358;49.590;11.030;2024-02-15T00:54:00;14.83;;;9.73;;
20397;SDS011;10358;49.590;11.030;2024-02-15T00:56:26;12.87;;;8.67;;
20397;SDS011;10358;49.590;11.030;2024-02-15T00:58:52;15.10;;;9.50;;
20397;SDS011;10358;49.590;11.030;2024-02-15T01:01:18;13.87;;;8.93;;
20397;SDS011;10358;49.590;11.030;2024-02-15T01:03:44;16.07;;;9.07;;
20397;SDS011;10358;49.590;11.030;2024-02-15T01:06:09;12.80;;;8.77;;
20397;SDS011;10358;49.590;11.030;2024-02-15T01:08:35;12.50;;;8.00;;
20397;SDS011;10358;49.590;11.030;2024-02-15T01:11:01;16.07;;;9.07;;
20397;SDS011;10358;49.590;11.030;2024-02-15T01:13:27;12.73;;;8.33;;
20397;SDS011;10358;49.590;11.030;2024-02-15T01:15:52;18.53;;;8.50;;
20397;SDS011;10358;49.590;11.030;2024-02-15T01:18:18;15.33;;;8.20;;
20397;SDS011;10358;49.590;11.030;2024-02-15T01:20:44;15.80;;;9.03;;
20397;SDS011;10358;49.590;11.030;2024-02-15T01:23:10;14.63;;;8.73;;
20397;SDS011;10358;49.590;11.030;2024-02-15T01:25:35;12.43;;;8.07;;
20397;SDS011;10358;49.590;11.030;2024-02-15T01:28:01;14.70;;;8.30;;
20397;SDS011;10358;49.590;11.030;2024-02-15T01:30:27;16.20;;;8.43;;
20397;SDS011;10358;49.590;11.030;2024-02-15T01:32:53;13.63;;;8.30;;
20397;SDS011;10358;49.590;11.030;2024-02-15T01:35:19;12.97;;;8.67;;
20397;SDS011;10358;49.590;11.030;2024-02-15T01:37:45;13.03;;;7.57;;
20397;SDS011;10358;49.590;11.030;2024-02-15T01:40:11;15.93;;;8.50;;
20397;SDS011;10358;49.590;11.030;2024-02-15T01:42:38;13.87;;;8.23;;
20397;SDS011;10358;49.590;11.030;2024-02-15T01:45:04;10.93;;;7.77;;
20397;SDS011;10358;49.590;11.030;2024-02-15T01:47:31;12.63;;;7.70;;
20397;SDS011;10358;49.590;11.030;2024-02-15T01:49:56;13.47;;;7.90;;
20397;SDS011;10358;49.590;11.030;2024-02-15T01:52:22;11.73;;;7.53;;
20397;SDS011;10358;49.590;11.030;2024-02-15T01:54:49;14.53;;;8.40;;
20397;SDS011;10358;49.590;11.030;2024-02-15T01:57:16;13.03;;;8.50;;
20397;SDS011;10358;49.590;11.030;2024-02-15T01:59:43;14.83;;;9.20;;
20397;SDS011;10358;49.590;11.030;2024-02-15T02:02:08;12.50;;;8.30;;
20397;SDS011;10358;49.590;11.030;2024-02-15T02:04:38;15.30;;;8.70;;
20397;SDS011;10358;49.590;11.030;2024-02-15T02:07:04;15.10;;;9.17;;
20397;SDS011;10358;49.590;11.030;2024-02-15T02:09:29;12.50;;;8.40;;
20397;SDS011;10358;49.590;11.030;2024-02-15T02:11:55;14.43;;;9.23;;
20397;SDS011;10358;49.590;11.030;2024-02-15T02:14:20;14.37;;;8.70;;
20397;SDS011;10358;49.590;11.030;2024-02-15T02:16:46;15.90;;;9.17;;
20397;SDS011;10358;49.590;11.030;2024-02-15T02:19:12;11.97;;;8.10;;
20397;SDS011;10358;49.590;11.030;2024-02-15T02:21:37;14.03;;;9.33;;
20397;SDS011;10358;49.590;11.030;2024-02-15T02:24:05;12.47;;;8.67;;
20397;SDS011;10358;49.590;11.030;2024-02-15T02:26:38;12.83;;;8.13;;
20397;SDS011;10358;49.590;11.030;2024-02-15T02:29:05;14.23;;;8.63;;
20397;SDS011;10358;49.590;11.030;2024-02-15T02:31:33;13.43;;;7.97;;
20397;SDS011;10358;49.590;11.030;2024-02-15T02:33:59;11.97;;;8.47;;
20397;SDS011;10358;49.590;11.030;2024-02-15T02:36:25;17.67;;;8.30;;
20397;SDS011;10358;49.590;11.030;2024-02-15T02:38:51;13.17;;;8.87;;
20397;SDS011;10358;49.590;11.030;2024-02-15T02:41:17;12.87;;;7.73;;
20397;SDS011;10358;49.590;11.030;2024-02-15T02:43:44;14.97;;;8.10;;
20397;SDS011;10358;49.590;11.030;2024-02-15T02:46:10;15.70;;;8.27;;
20397;SDS011;10358;49.590;11.030;2024-02-15T02:48:39;13.90;;;8.27;;
20397;SDS011;10358;49.590;11.030;2024-02-15T02:51:06;13.40;;;8.27;;
20397;SDS011;10358;49.590;11.030;2024-02-15T02:53:32;15.33;;;7.57;;
20397;SDS011;10358;49.590;11.030;2024-02-15T02:55:58;12.70;;;8.07;;
20397;SDS011;10358;49.590;11.030;2024-02-15T02:58:24;11.57;;;7.40;;
20397;SDS011;10358;49.590;11.030;2024-02-15T03:00:50;15.77;;;7.40;;
20397;SDS011;10358;49.590;11.030;2024-02-15T03:03:16;13.00;;;7.50;;
20397;SDS011;10358;49.590;11.030;2024-02-15T03:05:43;14.30;;;7.80;;
20397;SDS011;10358;49.590;11.030;2024-02-15T03:08:09;13.73;;;8.33;;
20397;SDS011;10358;49.590;11.030;2024-02-15T03:10:37;12.87;;;7.97;;
20397;SDS011;10358;49.590;11.030;2024-02-15T03:13:03;13.97;;;8.37;;
20397;SDS011;10358;49.590;11.030;2024-02-15T03:15:29;17.77;;;8.43;;
20397;SDS011;10358;49.590;11.030;2024-02-15T03:17:55;16.10;;;8.70;;
20397;SDS011;10358;49.590;11.030;2024-02-15T03:20:21;12.97;;;8.37;;
20397;SDS011;10358;49.590;11.030;2024-02-15T03:22:53;12.60;;;8.40;;
20397;SDS011;10358;49.590;11.030;2024-02-15T03:25:19;13.13;;;8.40;;
20397;SDS011;10358;49.590;11.030;2024-02-15T03:27:48;12.23;;;8.23;;
20397;SDS011;10358;49.590;11.030;2024-02-15T03:30:18;13.40;;;8.57;;
20397;SDS011;10358;49.590;11.030;2024-02-15T03:32:44;12.50;;;7.97;;
20397;SDS011;10358;49.590;11.030;2024-02-15T03:35:11;17.57;;;8.90;;
20397;SDS011;10358;49.590;11.030;2024-02-15T03:37:39;12.00;;;8.40;;
20397;SDS011;10358;49.590;11.030;2024-02-15T03:40:05;13.03;;;8.70;;
20397;SDS011;10358;49.590;11.030;2024-02-15T03:42:31;13.23;;;8.53;;
20397;SDS011;10358;49.590;11.030;2024-02-15T03:44:56;13.63;;;8.30;;
20397;SDS011;10358;49.590;11.030;2024-02-15T03:47:22;14.70;;;8.67;;
20397;SDS011;10358;49.590;11.030;2024-02-15T03:49:48;12.67;;;8.30;;
20397;SDS011;10358;49.590;11.030;2024-02-15T03:52:14;13.63;;;8.47;;
20397;SDS011;10358;49.590;11.030;2024-02-15T03:54:40;14.23;;;8.93;;
20397;SDS011;10358;49.590;11.030;2024-02-15T03:57:08;13.63;;;8.80;;
20397;SDS011;10358;49.590;11.030;2024-02-15T03:59:33;12.97;;;8.83;;
20397;SDS011;10358;49.590;11.030;2024-02-15T04:02:00;13.13;;;8.57;;
20397;SDS011;10358;49.590;11.030;2024-02-15T04:04:28;15.77;;;8.77;;
20397;SDS011;10358;49.590;11.030;2024-02-15T04:06:55;14.77;;;8.73;;
20397;SDS011;10358;49.590;11.030;2024-02-15T04:09:21;17.57;;;9.43;;
20397;SDS011;10358;49.590;11.030;2024-02-15T04:11:47;16.80;;;9.00;;
20397;SDS011;10358;49.590;11.030;2024-02-15T04:14:17;13.50;;;8.73;;
20397;SDS011;10358;49.590;11.030;2024-02-15T04:16:43;13.53;;;8.70;;
20397;SDS011;10358;49.590;11.030;2024-02-15T04:19:10;15.37;;;8.60;;
20397;SDS011;10358;49.590;11.030;2024-02-15T04:21:36;14.73;;;9.07;;
20397;SDS011;10358;49.590;11.030;2024-02-15T04:24:01;13.17;;;8.87;;
20397;SDS011;10358;49.590;11.030;2024-02-15T04:26:27;14.97;;;8.80;;
20397;SDS011;10358;49.590;11.030;2024-02-15T04:28:55;15.20;;;10.00;;
20397;SDS011;10358;49.590;11.030;2024-02-15T04:31:20;14.77;;;9.60;;
20397;SDS011;10358;49.590;11.030;2024-02-15T04:33:54;15.13;;;10.03;;
20397;SDS011;10358;49.590;11.030;2024-02-15T04:36:20;16.43;;;10.07;;
20397;SDS011;10358;49.590;11.030;2024-02-15T04:38:50;15.63;;;10.13;;
20397;SDS011;10358;49.590;11.030;2024-02-15T04:41:16;18.40;;;10.13;;
20397;SDS011;10358;49.590;11.030;2024-02-15T04:43:48;16.60;;;9.63;;
20397;SDS011;10358;49.590;11.030;2024-02-15T04:46:17;15.00;;;9.17;;
20397;SDS011;10358;49.590;11.030;2024-02-15T04:48:47;14.60;;;9.77;;
20397;SDS011;10358;49.590;11.030;2024-02-15T04:51:14;17.67;;;9.83;;
20397;SDS011;10358;49.590;11.030;2024-02-15T04:53:41;17.83;;;10.43;;
20397;SDS011;10358;49.590;11.030;2024-02-15T04:56:07;21.10;;;10.67;;
20397;SDS011;10358;49.590;11.030;2024-02-15T04:58:38;16.33;;;9.97;;
20397;SDS011;10358;49.590;11.030;2024-02-15T05:01:13;19.73;;;10.37;;
20397;SDS011;10358;49.590;11.030;2024-02-15T05:03:39;15.80;;;10.30;;
20397;SDS011;10358;49.590;11.030;2024-02-15T05:06:05;20.67;;;9.87;;
20397;SDS011;10358;49.590;11.030;2024-02-15T05:08:33;16.80;;;10.03;;
20397;SDS011;10358;49.590;11.030;2024-02-15T05:11:00;19.20;;;9.60;;
20397;SDS011;10358;49.590;11.030;2024-02-15T05:13:25;14.27;;;9.20;;
20397;SDS011;10358;49.590;11.030;2024-02-15T05:15:51;14.00;;;9.33;;
20397;SDS011;10358;49.590;11.030;2024-02-15T05:18:16;13.00;;;8.70;;
20397;SDS011;10358;49.590;11.030;2024-02-15T05:20:43;14.60;;;8.73;;
20397;SDS011;10358;49.590;11.030;2024-02-15T05:23:09;15.60;;;9.07;;
20397;SDS011;10358;49.590;11.030;2024-02-15T05:25:34;13.17;;;9.27;;
20397;SDS011;10358;49.590;11.030;2024-02-15T05:28:00;13.17;;;9.33;;
20397;SDS011;10358;49.590;11.030;2024-02-15T05:30:26;15.17;;;9.80;;
20397;SDS011;10358;49.590;11.030;2024-02-15T05:32:52;12.97;;;9.13;;
20397;SDS011;10358;49.590;11.030;2024-02-15T05:35:19;14.83;;;8.77;;
20397;SDS011;10358;49.590;11.030;2024-02-15T05:37:45;13.40;;;8.23;;
20397;SDS011;10358;49.590;11.030;2024-02-15T05:40:11;15.37;;;9.23;;
20397;SDS011;10358;49.590;11.030;2024-02-15T05:42:43;13.83;;;9.20;;
20397;SDS011;10358;49.590;11.030;2024-02-15T05:47:49;12.50;;;8.87;;
20397;SDS011;10358;49.590;11.030;2024-02-15T05:50:16;15.00;;;9.20;;
20397;SDS011;10358;49.590;11.030;2024-02-15T05:52:45;13.83;;;9.07;;
20397;SDS011;10358;49.590;11.030;2024-02-15T05:55:11;12.37;;;8.57;;
20397;SDS011;10358;49.590;11.030;2024-02-15T05:57:42;12.27;;;8.30;;
20397;SDS011;10358;49.590;11.030;2024-02-15T06:00:08;14.47;;;8.43;;
20397;SDS011;10358;49.590;11.030;2024-02-15T06:02:34;15.07;;;9.17;;
20397;SDS011;10358;49.590;11.030;2024-02-15T06:05:00;13.70;;;9.37;;
20397;SDS011;10358;49.590;11.030;2024-02-15T06:07:28;13.60;;;9.33;;
20397;SDS011;10358;49.590;11.030;2024-02-15T06:09:56;15.10;;;9.40;;
20397;SDS011;10358;49.590;11.030;2024-02-15T06:12:28;15.67;;;9.70;;
20397;SDS011;10358;49.590;11.030;2024-02-15T06:14:54;17.93;;;9.70;;
20397;SDS011;10358;49.590;11.030;2024-02-15T06:17:20;13.20;;;9.17;;
20397;SDS011;10358;49.590;11.030;2024-02-15T06:19:45;14.07;;;9.17;;
20397;SDS011;10358;49.590;11.030;2024-02-15T06:22:11;19.50;;;9.10;;
20397;SDS011;10358;49.590;11.030;2024-02-15T06:24:37;13.03;;;8.63;;
20397;SDS011;10358;49.590;11.030;2024-02-15T06:27:03;14.27;;;9.90;;
20397;SDS011;10358;49.590;11.030;2024-02-15T06:29:30;12.33;;;8.10;;
20397;SDS011;10358;49.590;11.030;2024-02-15T06:32:14;15.57;;;8.83;;
20397;SDS011;10358;49.590;11.030;2024-02-15T06:34:59;15.17;;;8.30;;
20397;SDS011;10358;49.590;11.030;2024-02-15T06:37:43;11.07;;;8.23;;
20397;SDS011;10358;49.590;11.030;2024-02-15T06:40:27;16.67;;;8.47;;
20397;SDS011;10358;49.590;11.030;2024-02-15T06:42:53;14.93;;;7.77;;
20397;SDS011;10358;49.590;11.030;2024-02-15T06:45:19;11.53;;;7.33;;
20397;SDS011;10358;49.590;11.030;2024-02-15T06:47:45;11.30;;;7.40;;
20397;SDS011;10358;49.590;11.030;2024-02-15T06:50:11;11.37;;;7.27;;
20397;SDS011;10358;49.590;11.030;2024-02-15T06:52:38;12.57;;;7.90;;
20397;SDS011;10358;49.590;11.030;2024-02-15T06:55:07;12.10;;;8.03;;
20397;SDS011;10358;49.590;11.030;2024-02-15T06:57:34;13.73;;;7.60;;
20397;SDS011;10358;49.590;11.030;2024-02-15T07:00:05;13.90;;;7.47;;
20397;SDS011;10358;49.590;11.030;2024-02-15T07:02:34;12.83;;;7.30;;
20397;SDS011;10358;49.590;11.030;2024-02-15T07:05:00;10.17;;;7.17;;
20397;SDS011;10358;49.590;11.030;2024-02-15T07:07:27;10.57;;;7.10;;
20397;SDS011;10358;49.590;11.030;2024-02-15T07:09:53;12.30;;;6.60;;
20397;SDS011;10358;49.590;11.030;2024-02-15T07:12:19;12.87;;;7.00;;
20397;SDS011;10358;49.590;11.030;2024-02-15T07:14:46;12.07;;;7.47;;
20397;SDS011;10358;49.590;11.030;2024-02-15T07:17:12;11.57;;;6.87;;
20397;SDS011;10358;49.590;11.030;2024-02-15T07:19:42;9.53;;;6.10;;
20397;SDS011;10358;49.590;11.030;2024-02-15T07:22:09;12.40;;;6.77;;
20397;SDS011;10358;49.590;11.030;2024-02-15T07:24:35;8.90;;;6.10;;
20397;SDS011;10358;49.590;11.030;2024-02-15T07:27:03;10.70;;;6.20;;
20397;SDS011;10358;49.590;11.030;2024-02-15T07:29:29;10.07;;;6.30;;
20397;SDS011;10358;49.590;11.030;2024-02-15T07:31:56;10.30;;;6.10;;
20397;SDS011;10358;49.590;11.030;2024-02-15T07:34:22;8.67;;;6.50;;
20397;SDS011;10358;49.590;11.030;2024-02-15T07:36:49;9.60;;;6.13;;
20397;SDS011;10358;49.590;11.030;2024-02-15T07:39:15;9.67;;;5.80;;
20397;SDS011;10358;49.590;11.030;2024-02-15T07:41:48;7.83;;;5.87;;
20397;SDS011;10358;49.590;11.030;2024-02-15T07:44:14;11.03;;;6.90;;
20397;SDS011;10358;49.590;11.030;2024-02-15T07:46:41;9.23;;;5.90;;
20397;SDS011;10358;49.590;11.030;2024-02-15T07:49:07;9.67;;;6.20;;
20397;SDS011;10358;49.590;11.030;2024-02-15T07:51:33;8.90;;;6.20;;
20397;SDS011;10358;49.590;11.030;2024-02-15T07:53:58;9.00;;;5.50;;
20397;SDS011;10358;49.590;11.030;2024-02-15T07:56:26;9.30;;;5.90;;
20397;SDS011;10358;49.590;11.030;2024-02-15T07:58:52;9.60;;;5.63;;
20397;SDS011;10358;49.590;11.030;2024-02-15T08:01:17;10.97;;;5.70;;
20397;SDS011;10358;49.590;11.030;2024-02-15T08:03:46;11.13;;;5.70;;
20397;SDS011;10358;49.590;11.030;2024-02-15T08:06:13;9.63;;;5.13;;
20397;SDS011;10358;49.590;11.030;2024-02-15T08:08:40;7.77;;;5.67;;
20397;SDS011;10358;49.590;11.030;2024-02-15T08:11:09;8.30;;;5.50;;
20397;SDS011;10358;49.590;11.030;2024-02-15T08:13:40;9.27;;;5.73;;
20397;SDS011;10358;49.590;11.030;2024-02-15T08:16:08;8.03;;;5.67;;
20397;SDS011;10358;49.590;11.030;2024-02-15T08:18:33;7.10;;;5.27;;
20397;SDS011;10358;49.590;11.030;2024-02-15T08:21:00;10.27;;;5.37;;
20397;SDS011;10358;49.590;11.030;2024-02-15T08:23:26;9.93;;;5.27;;
20397;SDS011;10358;49.590;11.030;2024-02-15T08:25:52;10.53;;;5.63;;
20397;SDS011;10358;49.590;11.030;2024-02-15T08:28:18;9.83;;;5.70;;
20397;SDS011;10358;49.590;11.030;2024-02-15T08:30:45;9.47;;;5.57;;
20397;SDS011;10358;49.590;11.030;2024-02-15T08:33:12;10.33;;;5.57;;
20397;SDS011;10358;49.590;11.030;2024-02-15T08:35:37;10.43;;;4.67;;
20397;SDS011;10358;49.590;11.030;2024-02-15T08:38:05;8.33;;;5.03;;
20397;SDS011;10358;49.590;11.030;2024-02-15T08:40:31;8.87;;;4.87;;
20397;SDS011;10358;49.590;11.030;2024-02-15T08:42:57;7.30;;;4.93;;
20397;SDS011;10358;49.590;11.030;2024-02-15T08:45:23;8.23;;;4.83;;
20397;SDS011;10358;49.590;11.030;2024-02-15T08:47:49;9.20;;;4.93;;
20397;SDS011;10358;49.590;11.030;2024-02-15T08:50:17;7.10;;;4.23;;
20397;SDS011;10358;49.590;11.030;2024-02-15T08:52:44;10.80;;;4.77;;
20397;SDS011;10358;49.590;11.030;2024-02-15T08:55:11;7.30;;;4.27;;
20397;SDS011;10358;49.590;11.030;2024-02-15T08:57:39;5.20;;;3.50;;
20397;SDS011;10358;49.590;11.030;2024-02-15T09:00:10;7.67;;;3.77;;
20397;SDS011;10358;49.590;11.030;2024-02-15T09:02:40;6.90;;;2.93;;
20397;SDS011;10358;49.590;11.030;2024-02-15T09:05:10;5.53;;;3.13;;
20397;SDS011;10358;49.590;11.030;2024-02-15T09:07:39;6.87;;;3.27;;
20397;SDS011;10358;49.590;11.030;2024-02-15T09:10:10;7.10;;;3.17;;
20397;SDS011;10358;49.590;11.030;2024-02-15T09:12:36;6.93;;;3.07;;
20397;SDS011;10358;49.590;11.030;2024-02-15T09:15:06;6.77;;;3.07;;
20397;SDS011;10358;49.590;11.030;2024-02-15T09:17:33;6.70;;;2.97;;
20397;SDS011;10358;49.590;11.030;2024-02-15T09:20:04;9.13;;;3.13;;
20397;SDS011;10358;49.590;11.030;2024-02-15T09:22:53;6.73;;;2.80;;
20397;SDS011;10358;49.590;11.030;2024-02-15T09:25:20;5.33;;;2.70;;
20397;SDS011;10358;49.590;11.030;2024-02-15T09:27:48;6.20;;;2.70;;
20397;SDS011;10358;49.590;11.030;2024-02-15T09:30:14;4.70;;;2.90;;
20397;SDS011;10358;49.590;11.030;2024-02-15T09:32:41;6.30;;;2.80;;
20397;SDS011;10358;49.590;11.030;2024-02-15T09:35:07;6.80;;;2.50;;
20397;SDS011;10358;49.590;11.030;2024-02-15T09:37:37;5.37;;;2.63;;
20397;SDS011;10358;49.590;11.030;2024-02-15T09:40:09;6.10;;;2.40;;
20397;SDS011;10358;49.590;11.030;2024-02-15T09:42:37;4.20;;;2.53;;
20397;SDS011;10358;49.590;11.030;2024-02-15T09:45:04;4.73;;;2.10;;
20397;SDS011;10358;49.590;11.030;2024-02-15T09:47:39;4.87;;;2.57;;
20397;SDS011;10358;49.590;11.030;2024-02-15T09:50:12;4.45;;;2.38;;
20397;SDS011;10358;49.590;11.030;2024-02-15T09:52:42;8.03;;;2.60;;
20397;SDS011;10358;49.590;11.030;2024-02-15T09:55:09;4.97;;;2.50;;
20397;SDS011;10358;49.590;11.030;2024-02-15T09:57:39;4.33;;;2.30;;
20397;SDS011;10358;49.590;11.030;2024-02-15T10:00:08;6.03;;;2.78;;
20397;SDS011;10358;49.590;11.030;2024-02-15T10:02:38;6.70;;;2.83;;
20397;SDS011;10358;49.590;11.030;2024-02-15T10:05:12;9.50;;;2.97;;
20397;SDS011;10358;49.590;11.030;2024-02-15T10:07:41;3.92;;;2.80;;
20397;SDS011;10358;49.590;11.030;2024-02-15T10:10:21;5.45;;;2.47;;
20397;SDS011;10358;49.590;11.030;2024-02-15T10:12:50;8.00;;;2.60;;
20397;SDS011;10358;49.590;11.030;2024-02-15T10:15:29;4.68;;;2.70;;
20397;SDS011;10358;49.590;11.030;2024-02-15T10:18:02;6.45;;;2.33;;
20397;SDS011;10358;49.590;11.030;2024-02-15T10:20:36;4.53;;;2.20;;
20397;SDS011;10358;49.590;11.030;2024-02-15T10:23:09;6.32;;;2.50;;
20397;SDS011;10358;49.590;11.030;2024-02-15T10:25:37;9.13;;;2.80;;
20397;SDS011;10358;49.590;11.030;2024-02-15T10:30:33;5.18;;;2.20;;
20397;SDS011;10358;49.590;11.030;2024-02-15T10:32:59;7.43;;;2.80;;
20397;SDS011;10358;49.590;11.030;2024-02-15T10:35:25;4.97;;;2.28;;
20397;SDS011;10358;49.590;11.030;2024-02-15T10:37:51;2.72;;;1.90;;
20397;SDS011;10358;49.590;11.030;2024-02-15T10:40:19;5.40;;;2.17;;
20397;SDS011;10358;49.590;11.030;2024-02-15T10:42:50;4.32;;;1.90;;
20397;SDS011;10358;49.590;11.030;2024-02-15T10:45:16;5.13;;;2.00;;
20397;SDS011;10358;49.590;11.030;2024-02-15T10:47:45;6.10;;;1.85;;
20397;SDS011;10358;49.590;11.030;2024-02-15T10:50:14;5.28;;;1.60;;
20397;SDS011;10358;49.590;11.030;2024-02-15T10:52:48;5.55;;;2.13;;
20397;SDS011;10358;49.590;11.030;2024-02-15T10:58:19;7.38;;;1.85;;
20397;SDS011;10358;49.590;11.030;2024-02-15T11:00:46;2.30;;;1.42;;
20397;SDS011;10358;49.590;11.030;2024-02-15T11:03:18;4.07;;;1.73;;
20397;SDS011;10358;49.590;11.030;2024-02-15T11:05:50;4.85;;;1.90;;
20397;SDS011;10358;49.590;11.030;2024-02-15T11:08:17;4.97;;;1.73;;
20397;SDS011;10358;49.590;11.030;2024-02-15T11:10:43;3.10;;;1.60;;
20397;SDS011;10358;49.590;11.030;2024-02-15T11:13:09;4.22;;;1.83;;
20397;SDS011;10358;49.590;11.030;2024-02-15T11:18:01;7.20;;;1.63;;
20397;SDS011;10358;49.590;11.030;2024-02-15T11:23:01;7.45;;;1.70;;
20397;SDS011;10358;49.590;11.030;2024-02-15T11:25:35;3.40;;;1.52;;
20397;SDS011;10358;49.590;11.030;2024-02-15T11:28:45;6.22;;;1.80;;
20397;SDS011;10358;49.590;11.030;2024-02-15T11:30:55;4.88;;;1.75;;
20397;SDS011;10358;49.590;11.030;2024-02-15T11:33:28;4.65;;;1.90;;
20397;SDS011;10358;49.590;11.030;2024-02-15T11:36:07;3.10;;;1.60;;
20397;SDS011;10358;49.590;11.030;2024-02-15T11:38:35;4.93;;;1.70;;
20397;SDS011;10358;49.590;11.030;2024-02-15T11:41:04;3.42;;;1.83;;
20397;SDS011;10358;49.590;11.030;2024-02-15T11:46:16;4.65;;;1.75;;
20397;SDS011;10358;49.590;11.030;2024-02-15T11:48:44;4.90;;;1.70;;
20397;SDS011;10358;49.590;11.030;2024-02-15T11:51:29;4.55;;;1.60;;
20397;SDS011;10358;49.590;11.030;2024-02-15T11:54:16;4.53;;;1.73;;
20397;SDS011;10358;49.590;11.030;2024-02-15T11:56:52;5.47;;;1.63;;
20397;SDS011;10358;49.590;11.030;2024-02-15T11:59:43;9.02;;;2.45;;
20397;SDS011;10358;49.590;11.030;2024-02-15T12:02:27;3.88;;;1.80;;
20397;SDS011;10358;49.590;11.030;2024-02-15T12:05:11;3.97;;;1.95;;
20397;SDS011;10358;49.590;11.030;2024-02-15T12:07:58;6.90;;;1.95;;
20397;SDS011;10358;49.590;11.030;2024-02-15T12:10:42;6.70;;;1.80;;
20397;SDS011;10358;49.590;11.030;2024-02-15T12:13:27;7.30;;;1.98;;
20397;SDS011;10358;49.590;11.030;2024-02-15T12:16:15;4.32;;;2.03;;
20397;SDS011;10358;49.590;11.030;2024-02-15T12:18:59;5.88;;;2.08;;
20397;SDS011;10358;49.590;11.030;2024-02-15T12:21:25;6.88;;;2.00;;
20397;SDS011;10358;49.590;11.030;2024-02-15T12:23:52;5.20;;;1.95;;
20397;SDS011;10358;49.590;11.030;2024-02-15T12:26:18;7.10;;;2.13;;
20397;SDS011;10358;49.590;11.030;2024-02-15T12:28:49;7.72;;;2.53;;
20397;SDS011;10358;49.590;11.030;2024-02-15T12:31:19;8.00;;;2.28;;
20397;SDS011;10358;49.590;11.030;2024-02-15T12:33:45;5.25;;;2.00;;
20397;SDS011;10358;49.590;11.030;2024-02-15T12:36:13;3.80;;;1.95;;
20397;SDS011;10358;49.590;11.030;2024-02-15T12:38:39;10.00;;;2.63;;
20397;SDS011;10358;49.590;11.030;2024-02-15T12:41:20;8.25;;;1.95;;
20397;SDS011;10358;49.590;11.030;2024-02-15T12:43:46;5.18;;;1.90;;
20397;SDS011;10358;49.590;11.030;2024-02-15T12:46:18;5.47;;;2.00;;
20397;SDS011;10358;49.590;11.030;2024-02-15T12:48:44;6.35;;;2.25;;
20397;SDS011;10358;49.590;11.030;2024-02-15T12:51:13;3.90;;;2.13;;
20397;SDS011;10358;49.590;11.030;2024-02-15T12:53:39;4.63;;;1.65;;
20397;SDS011;10358;49.590;11.030;2024-02-15T12:56:06;4.22;;;1.75;;
20397;SDS011;10358;49.590;11.030;2024-02-15T12:58:34;5.38;;;1.60;;
20397;SDS011;10358;49.590;11.030;2024-02-15T13:01:00;4.78;;;1.58;;
20397;SDS011;10358;49.590;11.030;2024-02-15T13:03:26;7.22;;;1.65;;
20397;SDS011;10358;49.590;11.030;2024-02-15T13:05:52;4.70;;;1.33;;
20397;SDS011;10358;49.590;11.030;2024-02-15T13:08:18;3.60;;;1.40;;
20397;SDS011;10358;49.590;11.030;2024-02-15T13:10:44;4.78;;;1.30;;
20397;SDS011;10358;49.590;11.030;2024-02-15T13:13:11;4.03;;;1.33;;
20397;SDS011;10358;49.590;11.030;2024-02-15T13:15:39;3.20;;;1.40;;
20397;SDS011;10358;49.590;11.030;2024-02-15T13:18:05;3.50;;;1.40;;
20397;SDS011;10358;49.590;11.030;2024-02-15T13:20:34;4.25;;;1.45;;
20397;SDS011;10358;49.590;11.030;2024-02-15T13:23:03;2.40;;;1.25;;
20397;SDS011;10358;49.590;11.030;2024-02-15T13:25:47;2.95;;;1.20;;
20397;SDS011;10358;49.590;11.030;2024-02-15T13:28:14;2.75;;;0.88;;
20397;SDS011;10358;49.590;11.030;2024-02-15T13:30:40;3.05;;;1.17;;
20397;SDS011;10358;49.590;11.030;2024-02-15T13:33:08;2.08;;;1.17;;
20397;SDS011;10358;49.590;11.030;2024-02-15T13:35:34;2.97;;;1.60;;
20397;SDS011;10358;49.590;11.030;2024-02-15T13:38:01;2.28;;;1.30;;
20397;SDS011;10358;49.590;11.030;2024-02-15T13:40:28;3.30;;;1.30;;
20397;SDS011;10358;49.590;11.030;2024-02-15T13:42:55;3.70;;;1.48;;
20397;SDS011;10358;49.590;11.030;2024-02-15T13:45:34;4.28;;;1.40;;
20397;SDS011;10358;49.590;11.030;2024-02-15T13:48:04;5.13;;;1.30;;
20397;SDS011;10358;49.590;11.030;2024-02-15T13:50:32;4.10;;;1.23;;
20397;SDS011;10358;49.590;11.030;2024-02-15T13:52:58;4.55;;;1.38;;
20397;SDS011;10358;49.590;11.030;2024-02-15T13:55:24;4.57;;;1.60;;
20397;SDS011;10358;49.590;11.030;2024-02-15T13:57:50;2.85;;;1.42;;
20397;SDS011;10358;49.590;11.030;2024-02-15T14:00:17;4.43;;;1.42;;
20397;SDS011;10358;49.590;11.030;2024-02-15T14:02:53;3.97;;;1.45;;
20397;SDS011;10358;49.590;11.030;2024-02-15T14:05:20;4.80;;;1.30;;
20397;SDS011;10358;49.590;11.030;2024-02-15T14:07:54;4.95;;;1.20;;
20397;SDS011;10358;49.590;11.030;2024-02-15T14:10:23;3.53;;;1.42;;
20397;SDS011;10358;49.590;11.030;2024-02-15T14:12:50;3.83;;;1.20;;
20397;SDS011;10358;49.590;11.030;2024-02-15T14:15:31;3.33;;;1.40;;
20397;SDS011;10358;49.590;11.030;2024-02-15T14:18:03;4.93;;;1.20;;
20397;SDS011;10358;49.590;11.030;2024-02-15T14:20:35;4.03;;;1.30;;
20397;SDS011;10358;49.590;11.030;2024-02-15T14:23:01;4.40;;;1.23;;
20397;SDS011;10358;49.590;11.030;2024-02-15T14:25:30;3.95;;;1.40;;
20397;SDS011;10358;49.590;11.030;2024-02-15T14:27:56;4.85;;;1.45;;
20397;SDS011;10358;49.590;11.030;2024-02-15T14:30:23;4.30;;;1.17;;
20397;SDS011;10358;49.590;11.030;2024-02-15T14:33:07;3.22;;;1.27;;
20397;SDS011;10358;49.590;11.030;2024-02-15T14:35:37;6.80;;;1.20;;
20397;SDS011;10358;49.590;11.030;2024-02-15T14:38:04;2.80;;;1.20;;
20397;SDS011;10358;49.590;11.030;2024-02-15T14:40:33;1.92;;;1.02;;
20397;SDS011;10358;49.590;11.030;2024-02-15T14:43:03;3.72;;;1.10;;
20397;SDS011;10358;49.590;11.030;2024-02-15T14:45:29;3.15;;;1.10;;
20397;SDS011;10358;49.590;11.030;2024-02-15T14:47:56;3.63;;;1.35;;